sensor_id;sensor_type;location;lat;lon;timestamp;P1;durP1;ratioP1;P2;durP2;ratioP2
35899;SDS011;21998;44.112;12.318;2022-09-09T00:09:21;14.50;;;2.13;;
35899;SDS011;21998;44.112;12.318;2022-09-09T00:11:52;17.23;;;2.50;;
35899;SDS011;21998;44.112;12.318;2022-09-09T00:17:10;18.02;;;2.10;;
35899;SDS011;21998;44.112;12.318;2022-09-09T00:24:53;20.20;;;1.83;;
35899;SDS011;21998;44.112;12.318;2022-09-09T00:29:57;13.25;;;1.95;;
35899;SDS011;21998;44.112;12.318;2022-09-09T00:32:27;17.67;;;2.75;;
35899;SDS011;21998;44.112;12.318;2022-09-09T00:34:57;8.07;;;1.50;;
35899;SDS011;21998;44.112;12.318;2022-09-09T00:37:24;15.38;;;2.25;;
35899;SDS011;21998;44.112;12.318;2022-09-09T00:39:51;18.92;;;2.33;;
35899;SDS011;21998;44.112;12.318;2022-09-09T00:45:28;16.50;;;2.03;;
35899;SDS011;21998;44.112;12.318;2022-09-09T00:47:57;14.27;;;2.60;;
35899;SDS011;21998;44.112;12.318;2022-09-09T00:50:45;17.42;;;2.20;;
35899;SDS011;21998;44.112;12.318;2022-09-09T00:58:13;9.93;;;2.30;;
35899;SDS011;21998;44.112;12.318;2022-09-09T01:00:46;16.70;;;1.95;;
35899;SDS011;21998;44.112;12.318;2022-09-09T01:03:19;12.80;;;2.47;;
35899;SDS011;21998;44.112;12.318;2022-09-09T01:06:11;22.17;;;2.13;;
35899;SDS011;21998;44.112;12.318;2022-09-09T01:11:22;11.57;;;2.22;;
35899;SDS011;21998;44.112;12.318;2022-09-09T01:13:53;17.20;;;2.03;;
35899;SDS011;21998;44.112;12.318;2022-09-09T01:16:21;8.75;;;1.85;;
35899;SDS011;21998;44.112;12.318;2022-09-09T01:18:48;10.13;;;1.75;;
35899;SDS011;21998;44.112;12.318;2022-09-09T01:27:02;13.20;;;2.00;;
35899;SDS011;21998;44.112;12.318;2022-09-09T01:29:29;11.25;;;1.70;;
35899;SDS011;21998;44.112;12.318;2022-09-09T01:31:56;10.38;;;1.60;;
35899;SDS011;21998;44.112;12.318;2022-09-09T01:34:23;14.13;;;1.83;;
35899;SDS011;21998;44.112;12.318;2022-09-09T01:36:59;12.18;;;2.08;;
35899;SDS011;21998;44.112;12.318;2022-09-09T01:39:26;15.25;;;1.70;;
35899;SDS011;21998;44.112;12.318;2022-09-09T01:41:52;10.82;;;2.13;;
35899;SDS011;21998;44.112;12.318;2022-09-09T01:44:19;13.82;;;1.90;;
35899;SDS011;21998;44.112;12.318;2022-09-09T01:46:45;10.00;;;1.90;;
35899;SDS011;21998;44.112;12.318;2022-09-09T01:49:10;14.02;;;2.38;;
35899;SDS011;21998;44.112;12.318;2022-09-09T01:51:36;15.27;;;3.05;;
35899;SDS011;21998;44.112;12.318;2022-09-09T01:54:03;10.13;;;1.70;;
35899;SDS011;21998;44.112;12.318;2022-09-09T02:03:51;16.52;;;2.67;;
35899;SDS011;21998;44.112;12.318;2022-09-09T02:06:36;9.90;;;2.47;;
35899;SDS011;21998;44.112;12.318;2022-09-09T02:09:06;8.02;;;1.85;;
35899;SDS011;21998;44.112;12.318;2022-09-09T02:11:33;11.73;;;2.45;;
35899;SDS011;21998;44.112;12.318;2022-09-09T02:14:18;16.38;;;2.63;;
35899;SDS011;21998;44.112;12.318;2022-09-09T02:19:22;11.70;;;2.13;;
35899;SDS011;21998;44.112;12.318;2022-09-09T02:21:51;8.77;;;1.38;;
35899;SDS011;21998;44.112;12.318;2022-09-09T02:24:18;9.55;;;2.17;;
35899;SDS011;21998;44.112;12.318;2022-09-09T02:26:44;17.77;;;2.03;;
35899;SDS011;21998;44.112;12.318;2022-09-09T02:29:13;20.15;;;1.90;;
35899;SDS011;21998;44.112;12.318;2022-09-09T02:31:39;17.88;;;1.83;;
35899;SDS011;21998;44.112;12.318;2022-09-09T02:34:06;12.10;;;2.08;;
35899;SDS011;21998;44.112;12.318;2022-09-09T02:36:36;9.35;;;2.00;;
35899;SDS011;21998;44.112;12.318;2022-09-09T02:39:02;16.77;;;2.50;;
35899;SDS011;21998;44.112;12.318;2022-09-09T02:41:35;29.27;;;2.05;;
35899;SDS011;21998;44.112;12.318;2022-09-09T02:44:02;14.40;;;2.10;;
35899;SDS011;21998;44.112;12.318;2022-09-09T02:46:44;13.77;;;2.03;;
35899;SDS011;21998;44.112;12.318;2022-09-09T02:49:16;11.45;;;1.88;;
35899;SDS011;21998;44.112;12.318;2022-09-09T02:51:51;15.50;;;1.80;;
35899;SDS011;21998;44.112;12.318;2022-09-09T02:56:52;13.02;;;1.88;;
35899;SDS011;21998;44.112;12.318;2022-09-09T02:59:20;11.30;;;1.90;;
35899;SDS011;21998;44.112;12.318;2022-09-09T03:01:46;13.93;;;2.00;;
35899;SDS011;21998;44.112;12.318;2022-09-09T03:04:12;10.13;;;1.52;;
35899;SDS011;21998;44.112;12.318;2022-09-09T03:06:37;12.80;;;2.17;;
35899;SDS011;21998;44.112;12.318;2022-09-09T03:09:03;10.52;;;1.70;;
35899;SDS011;21998;44.112;12.318;2022-09-09T03:11:28;15.85;;;2.22;;
35899;SDS011;21998;44.112;12.318;2022-09-09T03:13:54;12.40;;;1.52;;
35899;SDS011;21998;44.112;12.318;2022-09-09T03:16:21;8.85;;;1.63;;
35899;SDS011;21998;44.112;12.318;2022-09-09T03:18:47;10.30;;;2.17;;
35899;SDS011;21998;44.112;12.318;2022-09-09T03:21:12;12.95;;;2.10;;
35899;SDS011;21998;44.112;12.318;2022-09-09T03:23:38;9.02;;;1.77;;
35899;SDS011;21998;44.112;12.318;2022-09-09T03:26:04;7.30;;;1.27;;
35899;SDS011;21998;44.112;12.318;2022-09-09T03:28:29;12.75;;;1.42;;
35899;SDS011;21998;44.112;12.318;2022-09-09T03:31:04;10.00;;;1.67;;
35899;SDS011;21998;44.112;12.318;2022-09-09T03:33:30;10.35;;;1.65;;
35899;SDS011;21998;44.112;12.318;2022-09-09T03:35:56;9.20;;;1.83;;
35899;SDS011;21998;44.112;12.318;2022-09-09T03:38:25;19.10;;;2.58;;
35899;SDS011;21998;44.112;12.318;2022-09-09T03:40:51;19.67;;;2.72;;
35899;SDS011;21998;44.112;12.318;2022-09-09T03:43:18;16.60;;;1.50;;
35899;SDS011;21998;44.112;12.318;2022-09-09T03:45:45;19.70;;;2.20;;
35899;SDS011;21998;44.112;12.318;2022-09-09T03:48:12;17.45;;;1.70;;
35899;SDS011;21998;44.112;12.318;2022-09-09T03:50:37;9.63;;;1.40;;
35899;SDS011;21998;44.112;12.318;2022-09-09T03:53:03;23.92;;;2.60;;
35899;SDS011;21998;44.112;12.318;2022-09-09T03:55:28;21.17;;;2.58;;
35899;SDS011;21998;44.112;12.318;2022-09-09T03:57:53;15.38;;;2.13;;
35899;SDS011;21998;44.112;12.318;2022-09-09T04:00:19;18.00;;;1.70;;
35899;SDS011;21998;44.112;12.318;2022-09-09T04:02:45;17.98;;;2.60;;
35899;SDS011;21998;44.112;12.318;2022-09-09T04:05:11;14.90;;;2.10;;
35899;SDS011;21998;44.112;12.318;2022-09-09T04:07:36;9.05;;;2.00;;
35899;SDS011;21998;44.112;12.318;2022-09-09T04:10:02;12.40;;;1.95;;
35899;SDS011;21998;44.112;12.318;2022-09-09T04:12:27;16.67;;;1.90;;
35899;SDS011;21998;44.112;12.318;2022-09-09T04:14:52;10.77;;;1.70;;
35899;SDS011;21998;44.112;12.318;2022-09-09T04:17:18;8.50;;;1.70;;
35899;SDS011;21998;44.112;12.318;2022-09-09T04:19:43;18.30;;;2.42;;
35899;SDS011;21998;44.112;12.318;2022-09-09T04:22:09;12.35;;;2.42;;
35899;SDS011;21998;44.112;12.318;2022-09-09T04:24:34;10.45;;;2.30;;
35899;SDS011;21998;44.112;12.318;2022-09-09T04:27:00;16.58;;;2.30;;
35899;SDS011;21998;44.112;12.318;2022-09-09T04:29:25;10.05;;;2.10;;
35899;SDS011;21998;44.112;12.318;2022-09-09T04:31:51;18.42;;;1.70;;
35899;SDS011;21998;44.112;12.318;2022-09-09T04:34:17;13.25;;;2.15;;
35899;SDS011;21998;44.112;12.318;2022-09-09T04:36:42;12.32;;;2.05;;
35899;SDS011;21998;44.112;12.318;2022-09-09T04:39:08;10.70;;;1.55;;
35899;SDS011;21998;44.112;12.318;2022-09-09T04:41:33;14.95;;;1.58;;
35899;SDS011;21998;44.112;12.318;2022-09-09T04:43:59;15.45;;;1.73;;
35899;SDS011;21998;44.112;12.318;2022-09-09T04:46:25;18.98;;;2.30;;
35899;SDS011;21998;44.112;12.318;2022-09-09T04:48:51;22.73;;;2.20;;
35899;SDS011;21998;44.112;12.318;2022-09-09T04:51:17;13.55;;;1.80;;
35899;SDS011;21998;44.112;12.318;2022-09-09T04:53:43;18.98;;;2.15;;
35899;SDS011;21998;44.112;12.318;2022-09-09T04:56:13;16.30;;;2.53;;
35899;SDS011;21998;44.112;12.318;2022-09-09T04:58:39;15.32;;;2.50;;
35899;SDS011;21998;44.112;12.318;2022-09-09T05:01:09;15.98;;;2.78;;
35899;SDS011;21998;44.112;12.318;2022-09-09T05:03:34;21.50;;;2.00;;
35899;SDS011;21998;44.112;12.318;2022-09-09T05:06:07;21.65;;;2.42;;
35899;SDS011;21998;44.112;12.318;2022-09-09T05:08:33;12.80;;;1.77;;
35899;SDS011;21998;44.112;12.318;2022-09-09T05:10:59;23.52;;;2.63;;
35899;SDS011;21998;44.112;12.318;2022-09-09T05:13:25;12.60;;;1.98;;
35899;SDS011;21998;44.112;12.318;2022-09-09T05:15:57;18.80;;;1.83;;
35899;SDS011;21998;44.112;12.318;2022-09-09T05:18:22;9.90;;;1.70;;
35899;SDS011;21998;44.112;12.318;2022-09-09T05:20:50;18.48;;;3.20;;
35899;SDS011;21998;44.112;12.318;2022-09-09T05:23:18;25.42;;;2.17;;
35899;SDS011;21998;44.112;12.318;2022-09-09T05:25:52;20.77;;;2.63;;
35899;SDS011;21998;44.112;12.318;2022-09-09T05:28:19;14.25;;;2.65;;
35899;SDS011;21998;44.112;12.318;2022-09-09T05:30:45;25.60;;;2.92;;
35899;SDS011;21998;44.112;12.318;2022-09-09T05:33:10;21.65;;;2.42;;
35899;SDS011;21998;44.112;12.318;2022-09-09T05:35:38;18.20;;;2.33;;
35899;SDS011;21998;44.112;12.318;2022-09-09T05:38:04;26.83;;;2.72;;
35899;SDS011;21998;44.112;12.318;2022-09-09T05:40:29;14.18;;;2.60;;
35899;SDS011;21998;44.112;12.318;2022-09-09T05:42:55;17.10;;;2.70;;
35899;SDS011;21998;44.112;12.318;2022-09-09T05:45:20;18.73;;;3.63;;
35899;SDS011;21998;44.112;12.318;2022-09-09T05:47:50;15.50;;;2.38;;
35899;SDS011;21998;44.112;12.318;2022-09-09T05:50:17;16.70;;;2.22;;
35899;SDS011;21998;44.112;12.318;2022-09-09T05:52:42;14.13;;;2.67;;
35899;SDS011;21998;44.112;12.318;2022-09-09T05:55:09;17.10;;;2.22;;
35899;SDS011;21998;44.112;12.318;2022-09-09T05:57:38;15.90;;;2.78;;
35899;SDS011;21998;44.112;12.318;2022-09-09T06:00:04;17.02;;;2.85;;
35899;SDS011;21998;44.112;12.318;2022-09-09T06:02:29;20.25;;;2.50;;
35899;SDS011;21998;44.112;12.318;2022-09-09T06:04:55;16.75;;;2.63;;
35899;SDS011;21998;44.112;12.318;2022-09-09T06:07:23;18.92;;;2.85;;
35899;SDS011;21998;44.112;12.318;2022-09-09T06:09:49;20.98;;;2.10;;
35899;SDS011;21998;44.112;12.318;2022-09-09T06:12:16;12.90;;;2.40;;
35899;SDS011;21998;44.112;12.318;2022-09-09T06:14:41;17.20;;;2.47;;
35899;SDS011;21998;44.112;12.318;2022-09-09T06:17:07;16.95;;;2.22;;
35899;SDS011;21998;44.112;12.318;2022-09-09T06:19:32;18.25;;;3.05;;
35899;SDS011;21998;44.112;12.318;2022-09-09T06:21:58;20.70;;;2.60;;
35899;SDS011;21998;44.112;12.318;2022-09-09T06:24:23;19.25;;;2.78;;
35899;SDS011;21998;44.112;12.318;2022-09-09T06:26:49;21.58;;;2.30;;
35899;SDS011;21998;44.112;12.318;2022-09-09T06:29:14;21.20;;;3.00;;
35899;SDS011;21998;44.112;12.318;2022-09-09T06:31:40;11.00;;;2.55;;
35899;SDS011;21998;44.112;12.318;2022-09-09T06:34:06;13.57;;;2.70;;
35899;SDS011;21998;44.112;12.318;2022-09-09T06:36:33;18.63;;;2.55;;
35899;SDS011;21998;44.112;12.318;2022-09-09T06:38:59;14.40;;;2.45;;
35899;SDS011;21998;44.112;12.318;2022-09-09T06:41:27;29.67;;;2.75;;
35899;SDS011;21998;44.112;12.318;2022-09-09T06:43:53;30.30;;;3.30;;
35899;SDS011;21998;44.112;12.318;2022-09-09T06:46:19;19.38;;;3.00;;
35899;SDS011;21998;44.112;12.318;2022-09-09T06:48:45;20.63;;;2.88;;
35899;SDS011;21998;44.112;12.318;2022-09-09T06:51:15;18.55;;;3.22;;
35899;SDS011;21998;44.112;12.318;2022-09-09T06:53:41;14.90;;;2.40;;
35899;SDS011;21998;44.112;12.318;2022-09-09T06:58:41;11.80;;;1.88;;
35899;SDS011;21998;44.112;12.318;2022-09-09T07:01:11;12.02;;;1.65;;
35899;SDS011;21998;44.112;12.318;2022-09-09T07:03:38;13.90;;;2.05;;
35899;SDS011;21998;44.112;12.318;2022-09-09T07:06:04;12.43;;;2.40;;
35899;SDS011;21998;44.112;12.318;2022-09-09T07:08:30;15.52;;;2.88;;
35899;SDS011;21998;44.112;12.318;2022-09-09T07:11:02;19.23;;;1.90;;
35899;SDS011;21998;44.112;12.318;2022-09-09T07:13:27;11.77;;;1.83;;
35899;SDS011;21998;44.112;12.318;2022-09-09T07:15:53;12.80;;;2.33;;
35899;SDS011;21998;44.112;12.318;2022-09-09T07:18:19;10.30;;;1.52;;
35899;SDS011;21998;44.112;12.318;2022-09-09T07:20:53;17.20;;;2.03;;
35899;SDS011;21998;44.112;12.318;2022-09-09T07:23:20;12.57;;;2.15;;
35899;SDS011;21998;44.112;12.318;2022-09-09T07:25:46;11.18;;;1.30;;
35899;SDS011;21998;44.112;12.318;2022-09-09T07:28:12;7.50;;;1.50;;
35899;SDS011;21998;44.112;12.318;2022-09-09T07:30:38;12.93;;;1.25;;
35899;SDS011;21998;44.112;12.318;2022-09-09T07:33:04;10.30;;;2.05;;
35899;SDS011;21998;44.112;12.318;2022-09-09T07:35:29;8.43;;;1.92;;
35899;SDS011;21998;44.112;12.318;2022-09-09T07:37:55;11.70;;;1.88;;
35899;SDS011;21998;44.112;12.318;2022-09-09T07:40:20;12.63;;;1.90;;
35899;SDS011;21998;44.112;12.318;2022-09-09T07:42:47;20.20;;;1.90;;
35899;SDS011;21998;44.112;12.318;2022-09-09T07:45:12;16.95;;;1.92;;
35899;SDS011;21998;44.112;12.318;2022-09-09T07:47:39;6.32;;;1.15;;
35899;SDS011;21998;44.112;12.318;2022-09-09T07:50:06;9.00;;;1.42;;
35899;SDS011;21998;44.112;12.318;2022-09-09T07:52:33;12.35;;;1.25;;
35899;SDS011;21998;44.112;12.318;2022-09-09T07:54:59;10.00;;;0.93;;
35899;SDS011;21998;44.112;12.318;2022-09-09T07:57:25;4.53;;;1.13;;
35899;SDS011;21998;44.112;12.318;2022-09-09T07:59:51;6.47;;;1.38;;
35899;SDS011;21998;44.112;12.318;2022-09-09T08:02:17;7.43;;;1.27;;
35899;SDS011;21998;44.112;12.318;2022-09-09T08:04:42;8.10;;;1.00;;
35899;SDS011;21998;44.112;12.318;2022-09-09T08:07:08;9.00;;;1.17;;
35899;SDS011;21998;44.112;12.318;2022-09-09T08:09:33;7.13;;;1.42;;
35899;SDS011;21998;44.112;12.318;2022-09-09T08:11:58;5.53;;;0.90;;
35899;SDS011;21998;44.112;12.318;2022-09-09T08:14:25;4.97;;;1.00;;
35899;SDS011;21998;44.112;12.318;2022-09-09T08:16:51;7.82;;;1.75;;
35899;SDS011;21998;44.112;12.318;2022-09-09T08:19:18;6.22;;;1.10;;
35899;SDS011;21998;44.112;12.318;2022-09-09T08:21:43;7.47;;;0.80;;
35899;SDS011;21998;44.112;12.318;2022-09-09T08:24:09;6.35;;;1.13;;
35899;SDS011;21998;44.112;12.318;2022-09-09T08:26:36;5.90;;;0.93;;
35899;SDS011;21998;44.112;12.318;2022-09-09T08:29:03;6.43;;;0.90;;
35899;SDS011;21998;44.112;12.318;2022-09-09T08:31:30;6.57;;;0.77;;
35899;SDS011;21998;44.112;12.318;2022-09-09T08:33:56;6.15;;;0.82;;
35899;SDS011;21998;44.112;12.318;2022-09-09T08:36:26;6.47;;;0.68;;
35899;SDS011;21998;44.112;12.318;2022-09-09T08:38:52;4.88;;;0.70;;
35899;SDS011;21998;44.112;12.318;2022-09-09T08:46:39;8.00;;;1.00;;
35899;SDS011;21998;44.112;12.318;2022-09-09T08:49:18;3.88;;;0.65;;
35899;SDS011;21998;44.112;12.318;2022-09-09T08:51:45;10.13;;;1.33;;
35899;SDS011;21998;44.112;12.318;2022-09-09T08:54:11;7.60;;;0.98;;
35899;SDS011;21998;44.112;12.318;2022-09-09T08:56:36;10.43;;;1.05;;
35899;SDS011;21998;44.112;12.318;2022-09-09T08:59:02;8.90;;;0.85;;
35899;SDS011;21998;44.112;12.318;2022-09-09T09:12:06;5.53;;;0.80;;
35899;SDS011;21998;44.112;12.318;2022-09-09T09:14:34;11.00;;;0.88;;
35899;SDS011;21998;44.112;12.318;2022-09-09T09:17:10;4.72;;;0.70;;
35899;SDS011;21998;44.112;12.318;2022-09-09T09:19:38;6.15;;;0.80;;
35899;SDS011;21998;44.112;12.318;2022-09-09T09:22:14;5.55;;;0.70;;
35899;SDS011;21998;44.112;12.318;2022-09-09T09:24:43;3.60;;;0.70;;
35899;SDS011;21998;44.112;12.318;2022-09-09T09:27:15;3.72;;;0.60;;
35899;SDS011;21998;44.112;12.318;2022-09-09T09:29:40;6.40;;;1.10;;
35899;SDS011;21998;44.112;12.318;2022-09-09T09:32:07;13.45;;;0.95;;
35899;SDS011;21998;44.112;12.318;2022-09-09T09:34:38;5.93;;;1.40;;
35899;SDS011;21998;44.112;12.318;2022-09-09T09:37:07;4.55;;;0.73;;
35899;SDS011;21998;44.112;12.318;2022-09-09T09:39:37;13.18;;;0.85;;
35899;SDS011;21998;44.112;12.318;2022-09-09T09:42:14;7.40;;;0.68;;
35899;SDS011;21998;44.112;12.318;2022-09-09T09:47:06;6.77;;;0.80;;
35899;SDS011;21998;44.112;12.318;2022-09-09T09:49:35;5.63;;;0.82;;
35899;SDS011;21998;44.112;12.318;2022-09-09T09:52:01;6.00;;;1.10;;
35899;SDS011;21998;44.112;12.318;2022-09-09T09:54:31;6.72;;;0.80;;
35899;SDS011;21998;44.112;12.318;2022-09-09T09:57:22;7.07;;;0.70;;
35899;SDS011;21998;44.112;12.318;2022-09-09T09:59:43;6.70;;;0.93;;
35899;SDS011;21998;44.112;12.318;2022-09-09T10:02:13;5.88;;;0.80;;
35899;SDS011;21998;44.112;12.318;2022-09-09T10:04:39;5.75;;;1.05;;
35899;SDS011;21998;44.112;12.318;2022-09-09T10:07:12;3.75;;;1.10;;
35899;SDS011;21998;44.112;12.318;2022-09-09T10:09:37;3.85;;;0.65;;
35899;SDS011;21998;44.112;12.318;2022-09-09T10:14:44;6.85;;;0.98;;
35899;SDS011;21998;44.112;12.318;2022-09-09T10:19:59;9.23;;;0.77;;
35899;SDS011;21998;44.112;12.318;2022-09-09T10:22:33;7.85;;;1.08;;
35899;SDS011;21998;44.112;12.318;2022-09-09T10:33:04;11.85;;;0.82;;
35899;SDS011;21998;44.112;12.318;2022-09-09T10:38:05;6.25;;;0.50;;
35899;SDS011;21998;44.112;12.318;2022-09-09T10:46:08;12.02;;;0.93;;
35899;SDS011;21998;44.112;12.318;2022-09-09T10:51:14;3.95;;;0.57;;
35899;SDS011;21998;44.112;12.318;2022-09-09T10:53:53;9.38;;;1.20;;
35899;SDS011;21998;44.112;12.318;2022-09-09T10:56:21;3.97;;;0.52;;
35899;SDS011;21998;44.112;12.318;2022-09-09T11:01:21;6.55;;;0.90;;
35899;SDS011;21998;44.112;12.318;2022-09-09T11:03:51;4.38;;;0.95;;
35899;SDS011;21998;44.112;12.318;2022-09-09T11:06:19;4.75;;;0.55;;
35899;SDS011;21998;44.112;12.318;2022-09-09T11:08:45;3.28;;;0.68;;
35899;SDS011;21998;44.112;12.318;2022-09-09T11:11:13;7.22;;;1.50;;
35899;SDS011;21998;44.112;12.318;2022-09-09T11:18:44;5.37;;;0.93;;
35899;SDS011;21998;44.112;12.318;2022-09-09T11:21:16;14.50;;;1.10;;
35899;SDS011;21998;44.112;12.318;2022-09-09T11:23:47;9.00;;;0.73;;
35899;SDS011;21998;44.112;12.318;2022-09-09T11:26:16;12.77;;;1.65;;
35899;SDS011;21998;44.112;12.318;2022-09-09T11:28:56;7.55;;;0.60;;
35899;SDS011;21998;44.112;12.318;2022-09-09T11:31:40;12.90;;;0.93;;
35899;SDS011;21998;44.112;12.318;2022-09-09T11:34:19;11.75;;;1.30;;
35899;SDS011;21998;44.112;12.318;2022-09-09T11:39:49;11.88;;;0.93;;
35899;SDS011;21998;44.112;12.318;2022-09-09T11:42:21;6.28;;;0.70;;
35899;SDS011;21998;44.112;12.318;2022-09-09T11:44:47;13.52;;;1.08;;
35899;SDS011;21998;44.112;12.318;2022-09-09T11:47:31;5.03;;;1.23;;
35899;SDS011;21998;44.112;12.318;2022-09-09T11:50:10;3.42;;;0.73;;
35899;SDS011;21998;44.112;12.318;2022-09-09T11:52:39;3.95;;;0.60;;
35899;SDS011;21998;44.112;12.318;2022-09-09T11:55:30;14.68;;;1.20;;
35899;SDS011;21998;44.112;12.318;2022-09-09T11:58:05;7.63;;;0.80;;
35899;SDS011;21998;44.112;12.318;2022-09-09T12:00:52;12.77;;;1.15;;
35899;SDS011;21998;44.112;12.318;2022-09-09T12:03:34;5.68;;;0.80;;
35899;SDS011;21998;44.112;12.318;2022-09-09T12:08:45;6.13;;;1.17;;
35899;SDS011;21998;44.112;12.318;2022-09-09T12:11:11;11.15;;;1.30;;
35899;SDS011;21998;44.112;12.318;2022-09-09T12:13:37;7.38;;;0.63;;
35899;SDS011;21998;44.112;12.318;2022-09-09T12:16:03;4.60;;;0.90;;
35899;SDS011;21998;44.112;12.318;2022-09-09T12:18:37;6.22;;;0.70;;
35899;SDS011;21998;44.112;12.318;2022-09-09T12:23:32;9.60;;;0.93;;
35899;SDS011;21998;44.112;12.318;2022-09-09T12:26:12;6.18;;;0.60;;
35899;SDS011;21998;44.112;12.318;2022-09-09T12:33:45;6.53;;;0.70;;
35899;SDS011;21998;44.112;12.318;2022-09-09T12:36:14;10.68;;;0.90;;
35899;SDS011;21998;44.112;12.318;2022-09-09T12:38:41;7.03;;;1.25;;
35899;SDS011;21998;44.112;12.318;2022-09-09T12:41:21;7.75;;;0.73;;
35899;SDS011;21998;44.112;12.318;2022-09-09T12:43:48;10.75;;;1.25;;
35899;SDS011;21998;44.112;12.318;2022-09-09T12:46:34;4.72;;;1.05;;
35899;SDS011;21998;44.112;12.318;2022-09-09T12:49:02;8.43;;;0.93;;
35899;SDS011;21998;44.112;12.318;2022-09-09T12:51:29;6.50;;;0.70;;
35899;SDS011;21998;44.112;12.318;2022-09-09T12:53:56;7.80;;;0.70;;
35899;SDS011;21998;44.112;12.318;2022-09-09T12:56:29;4.85;;;0.77;;
35899;SDS011;21998;44.112;12.318;2022-09-09T12:58:56;5.82;;;0.95;;
35899;SDS011;21998;44.112;12.318;2022-09-09T13:01:24;8.85;;;0.77;;
35899;SDS011;21998;44.112;12.318;2022-09-09T13:03:50;6.65;;;0.88;;
35899;SDS011;21998;44.112;12.318;2022-09-09T13:06:19;7.95;;;1.02;;
35899;SDS011;21998;44.112;12.318;2022-09-09T13:08:45;7.82;;;0.77;;
35899;SDS011;21998;44.112;12.318;2022-09-09T13:11:13;5.78;;;0.77;;
35899;SDS011;21998;44.112;12.318;2022-09-09T13:13:43;8.18;;;0.93;;
35899;SDS011;21998;44.112;12.318;2022-09-09T13:16:20;15.13;;;1.35;;
35899;SDS011;21998;44.112;12.318;2022-09-09T13:18:46;8.38;;;1.95;;
35899;SDS011;21998;44.112;12.318;2022-09-09T13:21:13;8.82;;;1.20;;
35899;SDS011;21998;44.112;12.318;2022-09-09T13:23:39;5.75;;;0.90;;
35899;SDS011;21998;44.112;12.318;2022-09-09T13:26:25;3.35;;;0.80;;
35899;SDS011;21998;44.112;12.318;2022-09-09T13:28:52;10.27;;;1.02;;
35899;SDS011;21998;44.112;12.318;2022-09-09T13:33:47;10.70;;;0.70;;
35899;SDS011;21998;44.112;12.318;2022-09-09T13:36:13;7.13;;;0.88;;
35899;SDS011;21998;44.112;12.318;2022-09-09T13:41:24;13.60;;;1.42;;
35899;SDS011;21998;44.112;12.318;2022-09-09T13:43:50;7.38;;;0.60;;
35899;SDS011;21998;44.112;12.318;2022-09-09T13:49:01;6.28;;;0.90;;
35899;SDS011;21998;44.112;12.318;2022-09-09T13:51:43;5.65;;;1.00;;
35899;SDS011;21998;44.112;12.318;2022-09-09T13:54:13;5.07;;;0.82;;
35899;SDS011;21998;44.112;12.318;2022-09-09T13:56:39;6.82;;;0.90;;
35899;SDS011;21998;44.112;12.318;2022-09-09T13:59:05;10.73;;;0.85;;
35899;SDS011;21998;44.112;12.318;2022-09-09T14:01:31;6.55;;;0.70;;
35899;SDS011;21998;44.112;12.318;2022-09-09T14:04:00;4.95;;;0.90;;
35899;SDS011;21998;44.112;12.318;2022-09-09T14:06:25;7.25;;;0.93;;
35899;SDS011;21998;44.112;12.318;2022-09-09T14:08:51;5.32;;;0.85;;
35899;SDS011;21998;44.112;12.318;2022-09-09T14:11:17;5.20;;;0.70;;
35899;SDS011;21998;44.112;12.318;2022-09-09T14:13:45;3.35;;;0.70;;
35899;SDS011;21998;44.112;12.318;2022-09-09T14:16:11;7.47;;;1.20;;
35899;SDS011;21998;44.112;12.318;2022-09-09T14:18:37;9.93;;;0.60;;
35899;SDS011;21998;44.112;12.318;2022-09-09T14:21:03;9.00;;;0.50;;
35899;SDS011;21998;44.112;12.318;2022-09-09T14:23:29;12.93;;;1.15;;
35899;SDS011;21998;44.112;12.318;2022-09-09T14:25:55;10.95;;;0.90;;
35899;SDS011;21998;44.112;12.318;2022-09-09T14:28:20;4.93;;;0.63;;
35899;SDS011;21998;44.112;12.318;2022-09-09T14:30:46;13.57;;;1.33;;
35899;SDS011;21998;44.112;12.318;2022-09-09T14:33:12;7.25;;;1.20;;
35899;SDS011;21998;44.112;12.318;2022-09-09T14:35:38;5.75;;;0.77;;
35899;SDS011;21998;44.112;12.318;2022-09-09T14:38:04;5.60;;;0.70;;
35899;SDS011;21998;44.112;12.318;2022-09-09T14:40:30;6.00;;;0.88;;
35899;SDS011;21998;44.112;12.318;2022-09-09T14:42:55;6.13;;;0.77;;
35899;SDS011;21998;44.112;12.318;2022-09-09T14:45:22;9.07;;;1.10;;
35899;SDS011;21998;44.112;12.318;2022-09-09T14:47:50;7.80;;;1.15;;
35899;SDS011;21998;44.112;12.318;2022-09-09T14:50:15;7.68;;;0.80;;
35899;SDS011;21998;44.112;12.318;2022-09-09T14:52:41;5.10;;;0.80;;
35899;SDS011;21998;44.112;12.318;2022-09-09T14:55:07;13.95;;;1.60;;
35899;SDS011;21998;44.112;12.318;2022-09-09T14:57:32;3.95;;;0.65;;
35899;SDS011;21998;44.112;12.318;2022-09-09T14:59:58;12.40;;;0.88;;
35899;SDS011;21998;44.112;12.318;2022-09-09T15:02:23;10.63;;;0.80;;
35899;SDS011;21998;44.112;12.318;2022-09-09T15:04:48;3.55;;;0.70;;
35899;SDS011;21998;44.112;12.318;2022-09-09T15:07:15;8.80;;;1.20;;
35899;SDS011;21998;44.112;12.318;2022-09-09T15:09:41;2.67;;;0.75;;
35899;SDS011;21998;44.112;12.318;2022-09-09T15:12:07;3.55;;;0.70;;
35899;SDS011;21998;44.112;12.318;2022-09-09T15:14:33;5.40;;;0.80;;
35899;SDS011;21998;44.112;12.318;2022-09-09T15:17:00;7.97;;;1.08;;
35899;SDS011;21998;44.112;12.318;2022-09-09T15:19:26;9.75;;;0.82;;
35899;SDS011;21998;44.112;12.318;2022-09-09T15:21:51;3.35;;;0.57;;
35899;SDS011;21998;44.112;12.318;2022-09-09T15:24:17;6.43;;;0.88;;
35899;SDS011;21998;44.112;12.318;2022-09-09T15:26:42;14.38;;;0.88;;
35899;SDS011;21998;44.112;12.318;2022-09-09T15:29:08;6.45;;;1.33;;
35899;SDS011;21998;44.112;12.318;2022-09-09T15:31:33;5.70;;;0.90;;
35899;SDS011;21998;44.112;12.318;2022-09-09T15:34:03;2.90;;;0.50;;
35899;SDS011;21998;44.112;12.318;2022-09-09T15:36:42;7.57;;;0.80;;
35899;SDS011;21998;44.112;12.318;2022-09-09T15:39:09;2.92;;;0.50;;
35899;SDS011;21998;44.112;12.318;2022-09-09T15:41:37;5.30;;;0.82;;
35899;SDS011;21998;44.112;12.318;2022-09-09T15:44:03;3.72;;;0.65;;
35899;SDS011;21998;44.112;12.318;2022-09-09T15:46:32;11.05;;;0.80;;
35899;SDS011;21998;44.112;12.318;2022-09-09T15:51:29;8.50;;;0.85;;
35899;SDS011;21998;44.112;12.318;2022-09-09T15:53:55;2.90;;;0.60;;
35899;SDS011;21998;44.112;12.318;2022-09-09T15:56:21;6.13;;;0.80;;
35899;SDS011;21998;44.112;12.318;2022-09-09T15:58:47;4.95;;;0.95;;
35899;SDS011;21998;44.112;12.318;2022-09-09T16:01:12;4.72;;;1.10;;
35899;SDS011;21998;44.112;12.318;2022-09-09T16:03:41;10.50;;;0.90;;
35899;SDS011;21998;44.112;12.318;2022-09-09T16:06:07;3.75;;;0.80;;
35899;SDS011;21998;44.112;12.318;2022-09-09T16:08:34;10.73;;;1.25;;
35899;SDS011;21998;44.112;12.318;2022-09-09T16:11:10;6.68;;;1.20;;
35899;SDS011;21998;44.112;12.318;2022-09-09T16:13:36;7.80;;;0.73;;
35899;SDS011;21998;44.112;12.318;2022-09-09T16:16:14;5.55;;;0.80;;
35899;SDS011;21998;44.112;12.318;2022-09-09T16:18:44;9.55;;;0.82;;
35899;SDS011;21998;44.112;12.318;2022-09-09T16:21:29;4.53;;;0.52;;
35899;SDS011;21998;44.112;12.318;2022-09-09T16:23:55;8.32;;;1.20;;
35899;SDS011;21998;44.112;12.318;2022-09-09T16:26:22;6.68;;;1.02;;
35899;SDS011;21998;44.112;12.318;2022-09-09T16:28:48;8.15;;;1.23;;
35899;SDS011;21998;44.112;12.318;2022-09-09T16:31:15;4.88;;;0.70;;
35899;SDS011;21998;44.112;12.318;2022-09-09T16:33:59;7.97;;;1.17;;
35899;SDS011;21998;44.112;12.318;2022-09-09T16:36:29;6.28;;;1.15;;
35899;SDS011;21998;44.112;12.318;2022-09-09T16:39:00;9.63;;;1.17;;